Time;durP1;ratioP1;P1;durP2;ratioP2;P2;SDS_P1;SDS_P2;PMS_P1;PMS_P2;Temp;Humidity;BMP_temperature;BMP_pressure;BME280_temperature;BME280_humidity;BME280_pressure;Samples;Min_cycle;Max_cycle;Signal;HPM_P1;HPM_P2
2023/06/26 00:01:31;;;;;;;3.55;3.25;;;23.20;93.50;;;;;;4829622;29;20091;-68
2023/06/26 00:03:58;;;;;;;3.75;3.30;;;23.10;93.50;;;;;;4832117;29;20029;-68
2023/06/26 00:06:25;;;;;;;3.30;3.00;;;23.10;93.60;;;;;;4822883;29;20048;-68
2023/06/26 00:08:53;;;;;;;3.40;3.10;;;23.10;93.80;;;;;;4836658;29;20049;-68
2023/06/26 00:11:21;;;;;;;4.03;3.63;;;23.00;94.00;;;;;;4832864;29;20044;-68
2023/06/26 00:13:48;;;;;;;4.03;3.63;;;23.00;94.10;;;;;;4828733;29;20044;-68
2023/06/26 00:16:15;;;;;;;5.68;5.10;;;23.00;94.20;;;;;;4830091;29;20070;-68
2023/06/26 00:18:41;;;;;;;7.80;6.20;;;22.90;94.30;;;;;;4824917;29;20052;-68
2023/06/26 00:21:07;;;;;;;6.90;5.30;;;22.90;94.40;;;;;;4795598;29;20053;-68
2023/06/26 00:23:36;;;;;;;7.85;4.88;;;22.80;94.50;;;;;;4829467;29;20052;-68
2023/06/26 00:26:05;;;;;;;4.53;4.13;;;22.90;94.60;;;;;;4813132;29;20642;-68
2023/06/26 00:28:32;;;;;;;4.05;3.65;;;22.80;94.50;;;;;;4837284;29;20040;-68
2023/06/26 00:30:58;;;;;;;4.15;3.75;;;22.80;94.70;;;;;;4831707;29;20049;-68
2023/06/26 00:33:24;;;;;;;4.35;3.95;;;22.80;94.80;;;;;;4831778;29;20048;-68
2023/06/26 00:35:51;;;;;;;4.05;3.65;;;22.80;95.00;;;;;;4833972;29;20045;-68
2023/06/26 00:38:17;;;;;;;3.65;3.35;;;22.70;95.10;;;;;;4833082;29;21600;-68
2023/06/26 00:40:43;;;;;;;3.63;3.30;;;22.70;95.40;;;;;;4842955;29;20038;-68
2023/06/26 00:43:11;;;;;;;4.45;3.70;;;22.70;95.60;;;;;;4839054;29;20068;-68
2023/06/26 00:45:37;;;;;;;3.33;3.03;;;22.60;95.80;;;;;;4846095;29;20693;-68
2023/06/26 00:48:05;;;;;;;4.00;3.60;;;22.60;96.00;;;;;;4840764;29;21649;-68
2023/06/26 00:50:32;;;;;;;4.30;3.90;;;22.50;96.20;;;;;;4826789;29;20044;-68
2023/06/26 00:53:00;;;;;;;3.42;3.10;;;22.50;96.50;;;;;;4831776;29;20062;-68
2023/06/26 00:55:27;;;;;;;4.18;3.75;;;22.50;96.70;;;;;;4832915;29;20049;-68
2023/06/26 00:57:55;;;;;;;3.88;3.08;;;22.50;96.90;;;;;;4815564;29;20103;-68
2023/06/26 01:00:21;;;;;;;4.55;4.15;;;22.40;96.90;;;;;;4827713;29;20037;-68
2023/06/26 01:02:48;;;;;;;4.88;4.05;;;22.40;97.20;;;;;;4843162;29;20041;-69
2023/06/26 01:05:20;;;;;;;4.10;3.70;;;22.40;97.40;;;;;;4827963;29;20504;-68
2023/06/26 01:07:50;;;;;;;5.93;4.35;;;22.30;97.60;;;;;;4833521;29;20509;-68
2023/06/26 01:10:18;;;;;;;4.13;3.72;;;22.40;97.80;;;;;;4809671;29;20048;-68
2023/06/26 01:12:45;;;;;;;3.97;3.58;;;22.30;97.90;;;;;;4817456;29;20056;-68
2023/06/26 01:15:11;;;;;;;3.75;3.45;;;22.30;98.10;;;;;;4848131;29;20801;-68
2023/06/26 01:17:39;;;;;;;4.55;4.15;;;22.20;98.30;;;;;;4832777;29;20045;-68
2023/06/26 01:20:09;;;;;;;4.07;3.78;;;22.20;98.40;;;;;;4836323;29;22514;-68
2023/06/26 01:23:19;;;;;;;3.65;3.35;;;22.20;98.60;;;;;;4829282;29;20048;-69
2023/06/26 01:26:11;;;;;;;4.95;4.53;;;22.20;98.80;;;;;;4834085;29;20052;-67
2023/06/26 01:28:42;;;;;;;4.28;3.92;;;22.10;99.10;;;;;;4815163;29;20530;-68
2023/06/26 01:31:11;;;;;;;4.60;4.20;;;22.10;99.30;;;;;;4814578;29;20033;-68
2023/06/26 01:33:38;;;;;;;4.93;4.53;;;22.00;99.60;;;;;;4821505;29;20059;-69
2023/06/26 01:36:06;;;;;;;4.22;3.88;;;22.00;99.90;;;;;;4837342;29;20043;-68
2023/06/26 01:38:34;;;;;;;4.40;4.00;;;22.00;99.90;;;;;;4840480;29;20033;-68
2023/06/26 01:41:01;;;;;;;4.93;4.13;;;22.00;99.90;;;;;;4844153;29;20071;-69
2023/06/26 01:43:49;;;;;;;4.55;4.15;;;22.00;99.90;;;;;;4842954;29;20033;-68
2023/06/26 01:46:18;;;;;;;4.82;4.43;;;22.00;99.90;;;;;;4836269;29;20041;-68
2023/06/26 01:49:26;;;;;;;4.72;4.32;;;22.00;99.90;;;;;;4834211;29;20053;-68
2023/06/26 01:51:57;;;;;;;6.25;5.65;;;21.90;99.90;;;;;;4822638;29;20049;-69
2023/06/26 01:54:25;;;;;;;5.45;4.95;;;22.00;99.90;;;;;;4819144;29;20034;-68
2023/06/26 01:56:54;;;;;;;5.85;5.30;;;22.00;99.90;;;;;;4843813;29;20224;-68
2023/06/26 01:59:21;;;;;;;7.30;6.60;;;22.00;99.90;;;;;;4826396;29;20048;-69
2023/06/26 02:01:48;;;;;;;8.52;6.60;;;22.00;99.90;;;;;;4843601;29;20405;-68
2023/06/26 02:04:15;;;;;;;6.82;6.10;;;22.00;99.90;;;;;;4836938;29;20044;-68
2023/06/26 02:06:41;;;;;;;7.93;7.13;;;22.10;99.90;;;;;;4836007;29;20477;-68
2023/06/26 02:09:07;;;;;;;6.95;5.80;;;22.10;99.90;;;;;;4831504;29;20040;-68
2023/06/26 02:11:34;;;;;;;5.13;4.63;;;22.20;99.90;;;;;;4833795;29;20041;-68
2023/06/26 02:14:00;;;;;;;6.05;5.45;;;22.20;99.90;;;;;;4822370;29;22227;-68
2023/06/26 02:16:26;;;;;;;5.88;5.38;;;22.20;99.90;;;;;;4844297;29;20057;-68
2023/06/26 02:18:53;;;;;;;5.97;5.35;;;22.30;99.90;;;;;;4844060;29;20044;-68
2023/06/26 02:21:23;;;;;;;5.97;5.20;;;22.30;99.90;;;;;;4818980;29;20041;-68
2023/06/26 02:23:49;;;;;;;7.38;5.25;;;22.30;99.90;;;;;;4806533;29;20045;-68
2023/06/26 02:26:15;;;;;;;4.28;3.88;;;22.30;99.90;;;;;;4836317;29;20052;-68
2023/06/26 02:28:42;;;;;;;5.07;4.22;;;22.30;99.90;;;;;;4834133;29;20049;-68
2023/06/26 02:31:12;;;;;;;5.97;3.78;;;22.30;99.90;;;;;;4833226;29;20033;-69
2023/06/26 02:33:39;;;;;;;5.82;3.83;;;22.30;99.90;;;;;;4842226;29;20400;-69
2023/06/26 02:36:05;;;;;;;3.85;3.47;;;22.20;99.90;;;;;;4845633;29;20048;-68
2023/06/26 02:38:32;;;;;;;4.20;3.28;;;22.20;99.90;;;;;;4840562;29;20045;-68
2023/06/26 02:40:59;;;;;;;5.05;3.22;;;22.10;99.90;;;;;;4831101;29;20029;-68
2023/06/26 02:43:26;;;;;;;5.63;3.25;;;22.10;99.90;;;;;;4836204;29;20379;-68
2023/06/26 02:45:52;;;;;;;3.03;2.72;;;22.10;99.90;;;;;;4835464;29;20068;-68
2023/06/26 02:48:19;;;;;;;3.45;3.03;;;22.00;99.90;;;;;;4836999;29;20052;-68
2023/06/26 02:50:46;;;;;;;4.30;3.40;;;22.00;99.90;;;;;;4835831;29;20052;-69
2023/06/26 02:53:14;;;;;;;4.97;2.60;;;21.90;99.90;;;;;;4844562;29;20071;-68
2023/06/26 02:55:44;;;;;;;5.88;3.15;;;21.90;99.90;;;;;;4814271;29;20519;-68
2023/06/26 02:58:10;;;;;;;3.60;2.63;;;21.90;99.90;;;;;;4810074;29;20060;-68
2023/06/26 03:00:41;;;;;;;5.72;3.75;;;21.90;99.90;;;;;;4829584;29;20042;-69
2023/06/26 03:03:09;;;;;;;3.55;2.50;;;21.90;99.90;;;;;;4832302;29;20033;-68
2023/06/26 03:05:35;;;;;;;4.00;2.60;;;21.80;99.90;;;;;;4834209;29;20048;-68
2023/06/26 03:08:03;;;;;;;8.30;2.97;;;21.70;99.90;;;;;;4834622;29;20390;-68
2023/06/26 03:10:29;;;;;;;3.53;2.28;;;21.70;99.90;;;;;;4839639;29;20037;-69
2023/06/26 03:12:55;;;;;;;4.78;2.38;;;21.70;99.90;;;;;;4843736;29;20753;-69
2023/06/26 03:15:23;;;;;;;4.88;2.47;;;21.60;99.90;;;;;;4824986;29;20064;-68
2023/06/26 03:17:50;;;;;;;4.25;2.53;;;21.60;99.90;;;;;;4835158;29;20041;-68
2023/06/26 03:20:23;;;;;;;4.88;2.40;;;21.60;99.90;;;;;;4828698;29;20036;-68
2023/06/26 03:22:53;;;;;;;3.80;2.53;;;21.50;99.90;;;;;;4834556;29;20056;-68
2023/06/26 03:25:21;;;;;;;9.00;3.50;;;21.50;99.90;;;;;;4837977;29;23208;-68
2023/06/26 03:27:48;;;;;;;4.63;2.88;;;21.50;99.90;;;;;;4839300;29;20049;-69
2023/06/26 03:30:17;;;;;;;5.20;3.20;;;21.50;99.90;;;;;;4805081;29;20045;-68
2023/06/26 03:32:45;;;;;;;5.35;3.00;;;21.50;99.90;;;;;;4840948;29;20053;-69
2023/06/26 03:35:12;;;;;;;5.60;2.55;;;21.50;99.90;;;;;;4798996;29;20044;-68
2023/06/26 03:37:40;;;;;;;7.70;2.90;;;21.50;99.90;;;;;;4816269;29;20044;-69
2023/06/26 03:40:09;;;;;;;6.63;2.83;;;21.40;99.90;;;;;;4826372;29;20026;-68
2023/06/26 03:42:35;;;;;;;8.10;3.20;;;21.40;99.90;;;;;;4830064;29;20084;-68
2023/06/26 03:45:02;;;;;;;5.50;2.72;;;21.40;99.90;;;;;;4830008;29;21985;-68
2023/06/26 03:47:29;;;;;;;3.30;1.77;;;21.40;99.90;;;;;;4836875;29;20048;-68
2023/06/26 03:49:56;;;;;;;4.30;2.20;;;21.30;99.90;;;;;;4820720;29;20029;-68
2023/06/26 03:52:23;;;;;;;5.90;2.35;;;21.30;99.90;;;;;;4823294;29;20041;-68
2023/06/26 03:54:49;;;;;;;6.30;3.08;;;21.30;99.90;;;;;;4831635;29;20034;-68
2023/06/26 03:57:17;;;;;;;3.78;1.85;;;21.20;99.90;;;;;;4830195;29;20053;-68
2023/06/26 03:59:43;;;;;;;6.47;2.67;;;21.20;99.90;;;;;;4825706;29;20127;-68
2023/06/26 04:02:12;;;;;;;8.82;3.22;;;21.30;99.90;;;;;;4814050;29;20049;-68
2023/06/26 04:04:38;;;;;;;7.38;3.33;;;21.20;99.90;;;;;;4819055;29;20056;-68
2023/06/26 04:07:05;;;;;;;7.57;3.10;;;21.30;99.90;;;;;;4844200;29;20045;-68
2023/06/26 04:09:31;;;;;;;6.18;2.80;;;21.20;99.90;;;;;;4823032;29;21454;-68
2023/06/26 04:11:57;;;;;;;6.80;3.10;;;21.20;99.90;;;;;;4836730;29;21248;-68
2023/06/26 04:14:24;;;;;;;8.32;3.20;;;21.20;99.90;;;;;;4816926;29;20042;-69
2023/06/26 04:16:50;;;;;;;8.05;3.05;;;21.20;99.90;;;;;;4833292;29;20029;-68
2023/06/26 04:19:16;;;;;;;9.43;3.00;;;21.20;99.90;;;;;;4827408;29;20049;-68
2023/06/26 04:21:43;;;;;;;7.70;4.13;;;21.10;99.90;;;;;;4833095;29;20670;-68
2023/06/26 04:24:09;;;;;;;8.82;3.97;;;21.10;99.90;;;;;;4827214;29;20041;-68
2023/06/26 04:26:36;;;;;;;7.97;3.25;;;21.20;99.90;;;;;;4844484;29;20037;-68
2023/06/26 04:29:03;;;;;;;9.32;3.50;;;21.20;99.90;;;;;;4840562;29;20052;-68
2023/06/26 04:31:29;;;;;;;9.07;4.47;;;21.30;99.90;;;;;;4829880;29;20037;-68
2023/06/26 04:33:55;;;;;;;8.75;3.05;;;21.30;99.90;;;;;;4835986;29;20033;-68
2023/06/26 04:36:22;;;;;;;11.02;3.70;;;21.30;99.90;;;;;;4835370;29;20044;-68
2023/06/26 04:38:49;;;;;;;9.80;3.00;;;21.30;99.90;;;;;;4831893;29;20041;-68
2023/06/26 04:41:16;;;;;;;8.48;4.53;;;21.20;99.90;;;;;;4819313;29;20906;-69
2023/06/26 04:43:42;;;;;;;10.82;4.40;;;21.20;99.90;;;;;;4830748;29;20045;-70
2023/06/26 04:46:08;;;;;;;11.15;4.40;;;21.20;99.90;;;;;;4848337;29;20041;-68
2023/06/26 04:48:35;;;;;;;10.20;4.10;;;21.20;99.90;;;;;;4837817;29;20033;-70
2023/06/26 04:51:01;;;;;;;9.52;3.83;;;21.10;99.90;;;;;;4818732;29;20052;-69
2023/06/26 04:53:27;;;;;;;10.05;4.47;;;21.10;99.90;;;;;;4838320;29;20052;-69
2023/06/26 04:55:54;;;;;;;8.40;3.83;;;21.10;99.90;;;;;;4835859;29;20346;-69
2023/06/26 04:58:20;;;;;;;10.77;5.05;;;21.10;99.90;;;;;;4838227;29;20365;-69
2023/06/26 05:00:47;;;;;;;8.90;4.00;;;21.10;99.90;;;;;;4838049;29;20040;-69
2023/06/26 05:03:16;;;;;;;9.23;3.58;;;21.10;99.90;;;;;;4847908;29;20369;-69
2023/06/26 05:05:43;;;;;;;8.10;3.15;;;21.10;99.90;;;;;;4843575;29;20052;-68
2023/06/26 05:08:26;;;;;;;10.48;4.28;;;21.00;99.90;;;;;;4835826;29;20037;-70
2023/06/26 05:10:58;;;;;;;9.05;3.53;;;21.10;99.90;;;;;;4832998;29;20625;-69
2023/06/26 05:13:25;;;;;;;;;;;21.10;99.90;;;;;;4838092;29;20033;-68
2023/06/26 05:15:52;;;;;;;9.98;3.70;;;21.20;99.90;;;;;;4837485;29;19912;-70
2023/06/26 05:18:19;;;;;;;8.73;3.70;;;21.40;99.90;;;;;;4837392;29;20373;-69
2023/06/26 05:20:46;;;;;;;11.43;4.40;;;21.60;99.90;;;;;;4839470;29;20489;-70
2023/06/26 05:23:12;;;;;;;13.00;4.57;;;21.70;99.90;;;;;;4848803;29;20492;-70
2023/06/26 05:25:39;;;;;;;11.60;4.40;;;21.80;99.90;;;;;;4833476;29;20440;-70
2023/06/26 05:28:08;;;;;;;10.43;4.13;;;21.90;99.90;;;;;;4832031;29;20033;-70
2023/06/26 05:30:35;;;;;;;11.93;3.75;;;22.10;99.90;;;;;;4825982;29;20037;-71
2023/06/26 05:33:02;;;;;;;9.25;3.45;;;22.20;99.90;;;;;;4832239;29;20489;-70
2023/06/26 05:35:30;;;;;;;10.93;3.88;;;22.30;99.90;;;;;;4831693;29;20061;-70
2023/06/26 05:37:58;;;;;;;8.90;3.85;;;22.40;99.90;;;;;;4837931;29;20036;-70
2023/06/26 05:40:25;;;;;;;13.30;4.70;;;22.50;99.90;;;;;;4836666;29;20060;-69
2023/06/26 05:42:52;;;;;;;8.30;3.20;;;22.50;99.90;;;;;;4838223;29;20072;-74
2023/06/26 05:45:18;;;;;;;10.60;4.55;;;22.60;99.90;;;;;;4832442;29;20052;-70
2023/06/26 05:47:46;;;;;;;8.65;4.30;;;22.50;99.90;;;;;;4829754;29;20048;-69
2023/06/26 05:50:13;;;;;;;9.90;3.35;;;22.50;99.90;;;;;;4828243;29;20071;-70
2023/06/26 05:52:39;;;;;;;6.82;3.38;;;22.60;99.90;;;;;;4847986;29;20044;-70
2023/06/26 05:55:06;;;;;;;10.48;3.42;;;22.60;99.90;;;;;;4837218;29;20765;-70
2023/06/26 05:57:35;;;;;;;9.27;3.33;;;22.70;99.90;;;;;;4843446;29;20044;-69
2023/06/26 06:00:03;;;;;;;8.82;2.97;;;22.80;99.90;;;;;;4838638;29;20259;-69
2023/06/26 06:02:41;;;;;;;8.50;3.30;;;22.90;99.90;;;;;;4836715;29;20390;-69
2023/06/26 06:05:08;;;;;;;5.78;2.95;;;23.00;99.90;;;;;;4834151;29;20052;-69
2023/06/26 06:07:35;;;;;;;10.00;3.38;;;23.20;99.90;;;;;;4832456;29;20375;-69
2023/06/26 06:10:02;;;;;;;6.32;2.72;;;23.30;99.90;;;;;;4827504;29;20095;-69
2023/06/26 06:12:29;;;;;;;6.95;2.60;;;23.40;99.90;;;;;;4834654;29;20093;-69
2023/06/26 06:14:56;;;;;;;5.75;2.55;;;23.50;99.90;;;;;;4842021;29;20040;-70
2023/06/26 06:17:23;;;;;;;9.30;2.42;;;23.60;99.90;;;;;;4845238;29;21119;-69
2023/06/26 06:19:49;;;;;;;5.93;2.70;;;23.80;99.90;;;;;;4833217;29;20041;-69
2023/06/26 06:22:17;;;;;;;4.80;1.65;;;24.00;99.90;;;;;;4833881;29;20044;-69
2023/06/26 06:24:43;;;;;;;11.77;2.90;;;24.10;99.90;;;;;;4833267;29;20091;-69
2023/06/26 06:27:10;;;;;;;6.43;2.17;;;24.40;99.90;;;;;;4834827;29;20044;-69
2023/06/26 06:29:36;;;;;;;3.17;1.88;;;24.70;99.90;;;;;;4827169;29;20575;-69
2023/06/26 06:32:03;;;;;;;8.05;2.20;;;25.00;99.90;;;;;;4835815;29;20040;-69
2023/06/26 06:34:29;;;;;;;4.45;1.42;;;25.10;99.90;;;;;;4843890;29;20444;-70
2023/06/26 06:36:55;;;;;;;4.20;1.38;;;25.00;99.90;;;;;;4844121;29;20040;-69
2023/06/26 06:39:22;;;;;;;5.65;1.40;;;24.90;99.60;;;;;;4833396;29;20369;-69
2023/06/26 06:41:48;;;;;;;2.38;1.10;;;24.80;99.60;;;;;;4833610;29;20041;-69
2023/06/26 06:44:14;;;;;;;4.50;1.42;;;24.80;99.20;;;;;;4833319;29;20457;-68
2023/06/26 06:46:41;;;;;;;5.80;1.40;;;24.70;99.00;;;;;;4834950;29;21253;-69
2023/06/26 06:49:08;;;;;;;4.90;2.50;;;24.80;99.10;;;;;;4831836;29;20051;-69
2023/06/26 06:51:35;;;;;;;7.65;4.25;;;24.90;98.90;;;;;;4838833;29;20119;-69
2023/06/26 06:54:01;;;;;;;14.63;11.35;;;25.00;98.50;;;;;;4843329;29;20033;-69
2023/06/26 06:56:28;;;;;;;6.00;4.70;;;25.10;98.20;;;;;;4823678;29;20068;-69
2023/06/26 06:58:54;;;;;;;5.35;1.48;;;25.10;98.00;;;;;;4810607;29;20532;-69
2023/06/26 07:01:21;;;;;;;7.10;1.95;;;25.20;97.60;;;;;;4829188;29;20051;-69
2023/06/26 07:03:47;;;;;;;2.85;1.10;;;25.20;97.20;;;;;;4828535;29;20718;-69
2023/06/26 07:06:13;;;;;;;3.78;1.73;;;25.10;97.30;;;;;;4827548;29;20029;-69
2023/06/26 07:08:40;;;;;;;4.18;1.67;;;25.00;97.40;;;;;;4829274;29;20040;-69
2023/06/26 07:11:06;;;;;;;3.80;1.40;;;25.00;97.30;;;;;;4839132;29;20037;-69
2023/06/26 07:13:32;;;;;;;2.78;0.98;;;25.10;97.30;;;;;;4842075;29;20041;-69
2023/06/26 07:15:58;;;;;;;3.63;1.35;;;25.10;97.20;;;;;;4822771;29;20515;-69
2023/06/26 07:18:25;;;;;;;2.90;0.90;;;25.10;97.00;;;;;;4831244;29;22707;-69
2023/06/26 07:20:51;;;;;;;2.85;1.05;;;25.20;97.00;;;;;;4828622;29;20041;-69
2023/06/26 07:23:17;;;;;;;4.18;1.23;;;25.40;96.80;;;;;;4832312;29;20033;-69
2023/06/26 07:25:44;;;;;;;2.50;1.05;;;25.50;96.40;;;;;;4831932;29;20052;-69
2023/06/26 07:28:11;;;;;;;4.53;1.40;;;25.50;96.10;;;;;;4837456;29;20516;-69
2023/06/26 07:30:38;;;;;;;4.47;1.30;;;25.50;96.00;;;;;;4839156;29;20032;-69
2023/06/26 07:33:05;;;;;;;2.92;0.95;;;25.60;95.90;;;;;;4843260;29;20041;-69
2023/06/26 07:35:31;;;;;;;3.75;1.30;;;25.70;95.80;;;;;;4836226;29;20033;-69
2023/06/26 07:37:57;;;;;;;4.47;1.63;;;25.90;95.60;;;;;;4836835;29;20060;-69
2023/06/26 07:40:25;;;;;;;2.60;1.10;;;26.00;95.40;;;;;;4831609;29;20041;-69
2023/06/26 07:42:53;;;;;;;3.33;1.35;;;25.90;95.40;;;;;;4837435;29;21684;-69
2023/06/26 07:45:20;;;;;;;2.92;1.00;;;25.90;95.30;;;;;;4838357;29;20033;-70
2023/06/26 07:47:46;;;;;;;3.67;2.08;;;25.90;95.20;;;;;;4846819;29;20761;-70
2023/06/26 07:50:15;;;;;;;8.70;5.85;;;25.90;95.00;;;;;;4844878;29;20044;-69
2023/06/26 07:52:42;;;;;;;7.57;6.80;;;25.90;95.10;;;;;;4831093;29;20045;-70
2023/06/26 07:55:08;;;;;;;4.60;3.08;;;26.00;95.30;;;;;;4840092;29;20033;-70
2023/06/26 07:57:34;;;;;;;5.60;1.88;;;26.30;95.10;;;;;;4837612;29;20472;-67
2023/06/26 08:00:01;;;;;;;3.38;1.27;;;26.50;94.30;;;;;;4835414;29;20047;-70
2023/06/26 08:02:27;;;;;;;2.80;1.00;;;26.50;93.90;;;;;;4839591;29;20407;-69
2023/06/26 08:04:54;;;;;;;3.25;1.08;;;26.60;93.90;;;;;;4839664;29;20034;-69
2023/06/26 08:07:20;;;;;;;2.55;1.00;;;26.40;93.90;;;;;;4848221;29;20046;-69
2023/06/26 08:09:46;;;;;;;3.17;1.25;;;26.30;94.00;;;;;;4842174;29;20616;-70
2023/06/26 08:12:13;;;;;;;3.08;0.93;;;26.20;94.00;;;;;;4824507;29;20512;-69
2023/06/26 08:14:39;;;;;;;4.70;1.40;;;25.90;94.00;;;;;;4836581;29;20052;-70
2023/06/26 08:17:05;;;;;;;2.55;0.90;;;25.90;94.10;;;;;;4837763;29;20048;-69
2023/06/26 08:19:31;;;;;;;4.93;1.20;;;26.00;94.30;;;;;;4832206;29;20044;-69
2023/06/26 08:21:58;;;;;;;2.50;1.00;;;26.30;93.70;;;;;;4823728;29;20060;-69
2023/06/26 08:24:24;;;;;;;1.83;0.98;;;26.20;93.70;;;;;;4846093;29;20052;-69
2023/06/26 08:26:50;;;;;;;2.70;1.30;;;26.30;93.80;;;;;;4833716;29;20045;-68
2023/06/26 08:29:17;;;;;;;2.70;1.30;;;26.20;93.70;;;;;;4842015;29;20056;-69
2023/06/26 08:31:44;;;;;;;2.53;0.90;;;26.20;93.60;;;;;;4838323;29;20381;-69
2023/06/26 08:34:10;;;;;;;4.65;1.42;;;26.40;93.50;;;;;;4839954;29;20392;-69
2023/06/26 08:36:36;;;;;;;4.00;1.30;;;26.50;93.20;;;;;;4839564;29;20037;-69
2023/06/26 08:39:04;;;;;;;3.90;1.63;;;26.50;93.00;;;;;;4837299;29;20041;-68
2023/06/26 08:41:31;;;;;;;3.33;1.20;;;26.30;92.90;;;;;;4837685;29;20040;-67
2023/06/26 08:43:58;;;;;;;4.55;1.40;;;26.10;92.90;;;;;;4832398;29;20048;-68
2023/06/26 08:46:24;;;;;;;4.53;1.20;;;25.80;93.10;;;;;;4846318;29;20044;-68
2023/06/26 08:49:14;;;;;;;2.95;1.30;;;25.50;93.50;;;;;;4838235;29;20049;-69
2023/06/26 08:51:45;;;;;;;4.10;1.55;;;25.60;93.50;;;;;;4837964;29;21156;-70
2023/06/26 08:54:15;;;;;;;2.17;1.00;;;25.80;93.50;;;;;;4836733;29;20037;-69
2023/06/26 08:56:44;;;;;;;3.00;1.38;;;26.20;93.30;;;;;;4836802;29;20072;-69
2023/06/26 08:59:12;;;;;;;2.67;1.00;;;26.50;92.60;;;;;;4831879;29;20413;-69
2023/06/26 09:01:39;;;;;;;4.72;1.05;;;26.50;92.00;;;;;;4845186;29;20025;-70
2023/06/26 09:04:06;;;;;;;5.63;1.27;;;26.40;91.90;;;;;;4831794;29;21922;-69
2023/06/26 09:06:33;;;;;;;2.55;1.02;;;26.20;91.80;;;;;;4826491;29;20127;-70
2023/06/26 09:09:00;;;;;;;3.13;1.13;;;26.00;91.90;;;;;;4834212;29;20055;-70
2023/06/26 09:11:26;;;;;;;3.45;1.02;;;26.10;92.30;;;;;;4835970;29;20044;-69
2023/06/26 09:13:52;;;;;;;1.95;0.90;;;26.40;91.90;;;;;;4820575;29;20041;-69
2023/06/26 09:16:26;;;;;;;2.97;0.90;;;26.60;91.50;;;;;;4837101;29;20041;-70
2023/06/26 09:18:53;;;;;;;3.55;1.00;;;27.10;91.00;;;;;;4836182;29;20685;-69
2023/06/26 09:21:19;;;;;;;3.25;0.77;;;27.10;90.40;;;;;;4843866;29;20021;-69
2023/06/26 09:23:46;;;;;;;2.33;0.80;;;27.10;90.30;;;;;;4847860;29;20045;-70
2023/06/26 09:26:14;;;;;;;2.95;0.93;;;27.00;90.10;;;;;;4820113;29;20725;-70
2023/06/26 09:28:43;;;;;;;2.50;0.85;;;27.20;89.90;;;;;;4836413;29;20045;-69
2023/06/26 09:31:10;;;;;;;2.20;0.70;;;27.40;89.30;;;;;;4819310;29;20033;-67
2023/06/26 09:33:38;;;;;;;2.80;0.70;;;27.40;88.80;;;;;;4836238;29;20045;-66
2023/06/26 09:36:09;;;;;;;2.47;0.70;;;27.50;88.40;;;;;;4835318;29;20052;-67
2023/06/26 09:38:36;;;;;;;1.90;0.60;;;27.60;86.80;;;;;;4840065;29;20040;-69
2023/06/26 09:41:03;;;;;;;1.90;0.50;;;27.60;86.00;;;;;;4843305;29;20041;-71
2023/06/26 09:43:31;;;;;;;1.55;0.50;;;27.80;85.80;;;;;;4845127;29;20047;-69
2023/06/26 09:45:58;;;;;;;2.45;0.47;;;27.90;84.70;;;;;;4836361;29;20062;-70
2023/06/26 09:48:25;;;;;;;2.90;0.55;;;27.90;83.40;;;;;;4834853;29;20046;-70
2023/06/26 09:50:51;;;;;;;1.63;0.40;;;27.90;81.90;;;;;;4814970;29;20052;-69
2023/06/26 09:53:19;;;;;;;2.53;0.43;;;28.00;79.50;;;;;;4834414;29;20551;-70
2023/06/26 09:55:46;;;;;;;3.28;0.47;;;28.00;78.20;;;;;;4836224;29;20048;-69
2023/06/26 09:58:17;;;;;;;1.95;0.35;;;28.20;77.40;;;;;;4845456;29;21496;-70
2023/06/26 10:00:43;;;;;;;2.47;0.50;;;28.10;76.70;;;;;;4842325;29;20331;-69
2023/06/26 10:03:12;;;;;;;1.77;0.40;;;27.90;76.70;;;;;;4840909;29;20033;-70
2023/06/26 10:05:41;;;;;;;2.72;0.50;;;27.90;77.50;;;;;;4833180;29;20041;-70
2023/06/26 10:08:08;;;;;;;2.70;0.50;;;28.10;77.60;;;;;;4803807;29;20404;-69
2023/06/26 10:10:37;;;;;;;1.30;0.32;;;28.10;77.20;;;;;;4831704;29;20041;-71
2023/06/26 10:13:27;;;;;;;3.03;0.55;;;27.80;77.10;;;;;;4835523;29;20033;-70
2023/06/26 10:15:54;;;;;;;2.15;0.60;;;27.50;76.60;;;;;;4843247;29;20044;-69
2023/06/26 10:18:24;;;;;;;3.97;0.70;;;27.10;77.20;;;;;;4846591;29;20030;-69
2023/06/26 10:20:55;;;;;;;2.25;0.70;;;26.90;78.50;;;;;;4836553;29;20397;-70
2023/06/26 10:23:23;;;;;;;2.45;0.55;;;26.90;78.60;;;;;;4819385;29;20045;-70
2023/06/26 10:25:51;;;;;;;2.15;0.60;;;27.10;79.00;;;;;;4837528;29;20397;-69
2023/06/26 10:28:20;;;;;;;1.38;0.35;;;27.40;78.20;;;;;;4836172;29;20044;-73
2023/06/26 10:30:50;;;;;;;2.58;0.40;;;27.40;76.80;;;;;;4830347;29;20255;-72
2023/06/26 10:33:18;;;;;;;2.65;0.63;;;27.30;74.80;;;;;;4836511;29;20059;-70
2023/06/26 10:35:44;;;;;;;4.50;0.70;;;27.30;75.00;;;;;;4845541;29;20436;-71
2023/06/26 10:38:11;;;;;;;2.08;0.50;;;27.60;74.80;;;;;;4844763;29;20040;-70
2023/06/26 10:40:43;;;;;;;1.80;0.50;;;27.80;75.00;;;;;;4829414;29;20032;-69
2023/06/26 10:43:11;;;;;;;3.78;0.40;;;28.20;74.70;;;;;;4817418;29;20051;-69
2023/06/26 10:45:46;;;;;;;3.53;0.50;;;28.50;72.80;;;;;;4832309;29;20043;-68
2023/06/26 10:48:16;;;;;;;1.30;0.50;;;28.80;71.60;;;;;;4837253;29;21644;-69
2023/06/26 10:50:43;;;;;;;2.38;0.60;;;29.10;70.60;;;;;;4810352;29;20052;-68
2023/06/26 10:53:20;;;;;;;1.48;0.55;;;29.20;69.00;;;;;;4839624;29;20036;-68
2023/06/26 10:55:56;;;;;;;1.73;0.60;;;29.00;68.90;;;;;;4841047;29;20263;-68
2023/06/26 10:58:42;;;;;;;1.75;0.40;;;28.90;68.90;;;;;;4837137;29;20041;-68
2023/06/26 11:01:12;;;;;;;1.30;0.50;;;29.10;68.30;;;;;;4829413;29;20356;-69
2023/06/26 11:03:39;;;;;;;1.33;0.30;;;29.40;67.80;;;;;;4834229;29;20041;-69
2023/06/26 11:06:19;;;;;;;4.20;0.40;;;29.60;67.10;;;;;;4828974;29;20045;-69
2023/06/26 11:08:53;;;;;;;1.35;0.40;;;29.30;65.60;;;;;;4828362;29;20037;-68
2023/06/26 11:11:21;;;;;;;1.73;0.40;;;29.10;65.70;;;;;;4836330;29;20072;-69
2023/06/26 11:13:48;;;;;;;2.30;0.50;;;29.40;66.30;;;;;;4839454;29;20063;-70
2023/06/26 11:16:15;;;;;;;1.10;0.40;;;29.70;65.30;;;;;;4837816;29;20083;-72
2023/06/26 11:18:42;;;;;;;1.60;0.60;;;30.10;63.90;;;;;;4832473;29;20389;-71
2023/06/26 11:21:11;;;;;;;1.65;0.50;;;30.50;64.00;;;;;;4830729;29;20033;-71
2023/06/26 11:23:37;;;;;;;2.28;0.47;;;30.90;63.80;;;;;;4833621;29;20040;-68
2023/06/26 11:26:17;;;;;;;3.22;0.70;;;30.90;63.20;;;;;;4835332;29;20477;-68
2023/06/26 11:28:55;;;;;;;2.30;0.40;;;30.60;63.10;;;;;;4836868;29;20050;-73
2023/06/26 11:31:25;;;;;;;1.73;0.40;;;30.10;63.60;;;;;;4845151;29;20056;-68
2023/06/26 11:33:56;;;;;;;1.65;0.32;;;29.70;63.00;;;;;;4843455;29;20037;-68
2023/06/26 11:36:27;;;;;;;1.23;0.30;;;29.50;62.70;;;;;;4816546;29;20049;-68
2023/06/26 11:39:07;;;;;;;1.92;0.40;;;29.40;62.00;;;;;;4810820;29;20816;-68
2023/06/26 11:41:35;;;;;;;2.00;0.30;;;29.40;61.90;;;;;;4829824;29;20041;-68
2023/06/26 11:44:03;;;;;;;1.55;0.40;;;29.40;61.30;;;;;;4829411;29;20045;-68
2023/06/26 11:46:30;;;;;;;1.17;0.40;;;29.50;61.00;;;;;;4836547;29;20033;-69
2023/06/26 11:48:57;;;;;;;2.95;0.40;;;29.50;60.50;;;;;;4834247;29;20048;-68
2023/06/26 11:51:26;;;;;;;1.08;0.30;;;29.90;61.10;;;;;;4822478;29;20622;-68
2023/06/26 11:53:53;;;;;;;1.90;0.32;;;30.20;60.60;;;;;;4831824;29;20053;-68
2023/06/26 11:56:22;;;;;;;1.35;0.50;;;30.40;60.50;;;;;;4813662;29;20057;-68
2023/06/26 11:59:02;;;;;;;1.00;0.30;;;30.80;60.00;;;;;;4808307;29;20045;-68
2023/06/26 12:01:36;;;;;;;1.50;0.38;;;31.00;59.70;;;;;;4828350;29;20943;-68
2023/06/26 12:04:08;;;;;;;2.97;0.40;;;30.60;60.00;;;;;;4835035;29;20036;-69
2023/06/26 12:06:36;;;;;;;2.70;0.43;;;30.80;60.70;;;;;;4840612;29;20029;-68
2023/06/26 12:09:06;;;;;;;2.10;0.40;;;31.60;60.50;;;;;;4835962;29;21197;-68
2023/06/26 12:11:34;;;;;;;3.08;0.60;;;32.50;59.40;;;;;;4838976;29;20036;-70
2023/06/26 12:14:01;;;;;;;2.22;0.77;;;32.90;57.30;;;;;;4846890;29;20033;-68
2023/06/26 12:16:29;;;;;;;2.08;0.43;;;33.00;56.70;;;;;;4833236;29;20444;-68
2023/06/26 12:19:03;;;;;;;3.38;0.60;;;32.50;56.20;;;;;;4831224;29;20033;-70
2023/06/26 12:21:41;;;;;;;2.78;0.50;;;31.70;56.20;;;;;;4833858;29;20520;-70
2023/06/26 12:24:12;;;;;;;2.40;0.60;;;31.00;56.90;;;;;;4820138;29;20041;-70
2023/06/26 12:26:41;;;;;;;2.17;0.60;;;30.30;57.90;;;;;;4848288;29;20033;-71
2023/06/26 12:29:09;;;;;;;2.83;0.52;;;30.10;58.90;;;;;;4842530;29;20049;-71
2023/06/26 12:31:39;;;;;;;3.75;0.50;;;30.60;58.40;;;;;;4827155;29;20041;-70
2023/06/26 12:34:10;;;;;;;2.55;0.50;;;30.90;57.70;;;;;;4817773;29;20037;-70
2023/06/26 12:36:45;;;;;;;3.63;0.60;;;31.50;56.70;;;;;;4821647;29;20044;-69
2023/06/26 12:39:12;;;;;;;2.90;0.45;;;31.90;55.30;;;;;;4835127;29;20033;-69
2023/06/26 12:42:00;;;;;;;1.95;0.40;;;32.00;54.50;;;;;;4836165;29;20033;-68
2023/06/26 12:44:30;;;;;;;1.27;0.47;;;31.70;54.30;;;;;;4844123;29;20033;-70
2023/06/26 12:47:01;;;;;;;6.10;0.50;;;31.50;54.60;;;;;;4848931;29;20044;-68
2023/06/26 12:49:44;;;;;;;1.70;0.40;;;31.70;54.80;;;;;;4839617;29;20041;-68
2023/06/26 12:52:15;;;;;;;1.98;0.40;;;32.50;54.50;;;;;;4837180;29;20041;-68